sensor_id;sensor_type;location;lat;lon;timestamp;P1;durP1;ratioP1;P2;durP2;ratioP2
18425;SDS011;9340;48.756;9.226;2023-02-13T00:00:14;17.77;;;13.20;;
18425;SDS011;9340;48.756;9.226;2023-02-13T00:02:43;18.90;;;13.87;;
18425;SDS011;9340;48.756;9.226;2023-02-13T00:05:09;18.23;;;13.17;;
18425;SDS011;9340;48.756;9.226;2023-02-13T00:07:36;18.87;;;13.13;;
18425;SDS011;9340;48.756;9.226;2023-02-13T00:10:03;19.17;;;12.73;;
18425;SDS011;9340;48.756;9.226;2023-02-13T00:12:33;18.30;;;13.03;;
18425;SDS011;9340;48.756;9.226;2023-02-13T00:14:59;20.03;;;13.03;;
18425;SDS011;9340;48.756;9.226;2023-02-13T00:17:26;22.37;;;14.37;;
18425;SDS011;9340;48.756;9.226;2023-02-13T00:19:53;18.80;;;14.00;;
18425;SDS011;9340;48.756;9.226;2023-02-13T00:22:20;17.27;;;12.53;;
18425;SDS011;9340;48.756;9.226;2023-02-13T00:24:48;17.40;;;12.70;;
18425;SDS011;9340;48.756;9.226;2023-02-13T00:27:16;18.93;;;13.40;;
18425;SDS011;9340;48.756;9.226;2023-02-13T00:29:44;20.10;;;13.90;;
18425;SDS011;9340;48.756;9.226;2023-02-13T00:32:10;21.07;;;14.10;;
18425;SDS011;9340;48.756;9.226;2023-02-13T00:34:37;19.70;;;14.30;;
18425;SDS011;9340;48.756;9.226;2023-02-13T00:37:04;19.13;;;13.53;;
18425;SDS011;9340;48.756;9.226;2023-02-13T00:39:30;22.13;;;13.63;;
18425;SDS011;9340;48.756;9.226;2023-02-13T00:41:57;21.50;;;14.20;;
18425;SDS011;9340;48.756;9.226;2023-02-13T00:44:24;24.27;;;14.87;;
18425;SDS011;9340;48.756;9.226;2023-02-13T00:46:52;20.67;;;14.70;;
18425;SDS011;9340;48.756;9.226;2023-02-13T00:49:19;24.93;;;15.17;;
18425;SDS011;9340;48.756;9.226;2023-02-13T00:51:46;24.40;;;15.10;;
18425;SDS011;9340;48.756;9.226;2023-02-13T00:54:13;22.07;;;15.37;;
18425;SDS011;9340;48.756;9.226;2023-02-13T00:56:40;23.30;;;14.47;;
18425;SDS011;9340;48.756;9.226;2023-02-13T00:59:06;20.97;;;14.10;;
18425;SDS011;9340;48.756;9.226;2023-02-13T01:01:33;22.60;;;14.37;;
18425;SDS011;9340;48.756;9.226;2023-02-13T01:04:01;23.27;;;14.43;;
18425;SDS011;9340;48.756;9.226;2023-02-13T01:06:28;23.20;;;16.03;;
18425;SDS011;9340;48.756;9.226;2023-02-13T01:08:55;21.77;;;14.53;;
18425;SDS011;9340;48.756;9.226;2023-02-13T01:11:22;24.10;;;14.77;;
18425;SDS011;9340;48.756;9.226;2023-02-13T01:13:48;24.23;;;14.67;;
18425;SDS011;9340;48.756;9.226;2023-02-13T01:16:15;23.43;;;14.93;;
18425;SDS011;9340;48.756;9.226;2023-02-13T01:18:42;23.07;;;14.37;;
18425;SDS011;9340;48.756;9.226;2023-02-13T01:21:13;22.90;;;15.13;;
18425;SDS011;9340;48.756;9.226;2023-02-13T01:23:41;21.97;;;14.77;;
18425;SDS011;9340;48.756;9.226;2023-02-13T01:26:09;22.00;;;14.87;;
18425;SDS011;9340;48.756;9.226;2023-02-13T01:28:40;23.23;;;14.30;;
18425;SDS011;9340;48.756;9.226;2023-02-13T01:31:06;22.73;;;15.27;;
18425;SDS011;9340;48.756;9.226;2023-02-13T01:33:33;25.53;;;15.23;;
18425;SDS011;9340;48.756;9.226;2023-02-13T01:36:04;24.60;;;15.27;;
18425;SDS011;9340;48.756;9.226;2023-02-13T01:38:33;23.17;;;14.63;;
18425;SDS011;9340;48.756;9.226;2023-02-13T01:41:00;22.57;;;14.10;;
18425;SDS011;9340;48.756;9.226;2023-02-13T01:43:42;24.40;;;15.87;;
18425;SDS011;9340;48.756;9.226;2023-02-13T01:46:10;23.47;;;14.93;;
18425;SDS011;9340;48.756;9.226;2023-02-13T01:48:38;23.07;;;14.50;;
18425;SDS011;9340;48.756;9.226;2023-02-13T01:51:05;24.13;;;15.07;;
18425;SDS011;9340;48.756;9.226;2023-02-13T01:53:37;25.33;;;15.43;;
18425;SDS011;9340;48.756;9.226;2023-02-13T01:56:07;23.73;;;14.43;;
18425;SDS011;9340;48.756;9.226;2023-02-13T01:58:37;22.40;;;14.33;;
18425;SDS011;9340;48.756;9.226;2023-02-13T02:01:07;19.53;;;13.67;;
18425;SDS011;9340;48.756;9.226;2023-02-13T02:03:36;25.00;;;14.30;;
18425;SDS011;9340;48.756;9.226;2023-02-13T02:06:07;26.93;;;15.30;;
18425;SDS011;9340;48.756;9.226;2023-02-13T02:08:38;23.67;;;14.80;;
18425;SDS011;9340;48.756;9.226;2023-02-13T02:11:06;22.07;;;14.00;;
18425;SDS011;9340;48.756;9.226;2023-02-13T02:13:38;23.70;;;14.80;;
18425;SDS011;9340;48.756;9.226;2023-02-13T02:16:05;23.00;;;15.00;;
18425;SDS011;9340;48.756;9.226;2023-02-13T02:18:32;23.27;;;14.73;;
18425;SDS011;9340;48.756;9.226;2023-02-13T02:21:09;21.50;;;14.23;;
18425;SDS011;9340;48.756;9.226;2023-02-13T02:24:00;21.40;;;14.30;;
18425;SDS011;9340;48.756;9.226;2023-02-13T02:26:58;21.80;;;14.77;;
18425;SDS011;9340;48.756;9.226;2023-02-13T02:29:56;26.27;;;15.00;;
18425;SDS011;9340;48.756;9.226;2023-02-13T02:32:47;26.57;;;15.73;;
18425;SDS011;9340;48.756;9.226;2023-02-13T02:35:27;24.07;;;15.23;;
18425;SDS011;9340;48.756;9.226;2023-02-13T02:38:05;27.53;;;16.00;;
18425;SDS011;9340;48.756;9.226;2023-02-13T02:40:45;26.23;;;15.63;;
18425;SDS011;9340;48.756;9.226;2023-02-13T02:43:27;23.97;;;16.20;;
18425;SDS011;9340;48.756;9.226;2023-02-13T02:46:02;23.87;;;14.90;;
18425;SDS011;9340;48.756;9.226;2023-02-13T02:48:38;24.63;;;15.47;;
18425;SDS011;9340;48.756;9.226;2023-02-13T02:51:45;28.07;;;15.17;;
18425;SDS011;9340;48.756;9.226;2023-02-13T02:54:21;25.20;;;15.13;;
18425;SDS011;9340;48.756;9.226;2023-02-13T02:57:11;26.17;;;16.37;;
18425;SDS011;9340;48.756;9.226;2023-02-13T02:59:42;24.57;;;15.53;;
18425;SDS011;9340;48.756;9.226;2023-02-13T03:02:29;24.43;;;15.60;;
18425;SDS011;9340;48.756;9.226;2023-02-13T03:05:18;26.33;;;15.43;;
18425;SDS011;9340;48.756;9.226;2023-02-13T03:08:05;23.30;;;14.30;;
18425;SDS011;9340;48.756;9.226;2023-02-13T03:10:33;25.57;;;15.20;;
18425;SDS011;9340;48.756;9.226;2023-02-13T03:13:30;22.13;;;14.07;;
18425;SDS011;9340;48.756;9.226;2023-02-13T03:16:04;21.43;;;14.27;;
18425;SDS011;9340;48.756;9.226;2023-02-13T03:18:49;23.67;;;16.13;;
18425;SDS011;9340;48.756;9.226;2023-02-13T03:21:40;23.53;;;15.27;;
18425;SDS011;9340;48.756;9.226;2023-02-13T03:24:32;21.83;;;15.20;;
18425;SDS011;9340;48.756;9.226;2023-02-13T03:27:10;27.33;;;16.23;;
18425;SDS011;9340;48.756;9.226;2023-02-13T03:30:12;25.93;;;15.00;;
18425;SDS011;9340;48.756;9.226;2023-02-13T03:32:47;23.50;;;16.40;;
18425;SDS011;9340;48.756;9.226;2023-02-13T03:35:24;23.87;;;15.67;;
18425;SDS011;9340;48.756;9.226;2023-02-13T03:38:17;24.97;;;15.93;;
18425;SDS011;9340;48.756;9.226;2023-02-13T03:40:48;19.67;;;13.97;;
18425;SDS011;9340;48.756;9.226;2023-02-13T03:43:36;21.23;;;14.63;;
18425;SDS011;9340;48.756;9.226;2023-02-13T03:46:07;24.27;;;15.63;;
18425;SDS011;9340;48.756;9.226;2023-02-13T03:48:36;23.23;;;15.23;;
18425;SDS011;9340;48.756;9.226;2023-02-13T03:51:24;25.83;;;15.30;;
18425;SDS011;9340;48.756;9.226;2023-02-13T03:53:56;22.37;;;15.23;;
18425;SDS011;9340;48.756;9.226;2023-02-13T03:56:26;27.20;;;15.57;;
18425;SDS011;9340;48.756;9.226;2023-02-13T03:59:16;22.73;;;14.77;;
18425;SDS011;9340;48.756;9.226;2023-02-13T04:01:48;26.27;;;15.17;;
18425;SDS011;9340;48.756;9.226;2023-02-13T04:04:24;26.37;;;14.77;;
18425;SDS011;9340;48.756;9.226;2023-02-13T04:06:56;24.87;;;14.73;;
18425;SDS011;9340;48.756;9.226;2023-02-13T04:09:28;25.13;;;15.10;;
18425;SDS011;9340;48.756;9.226;2023-02-13T04:11:57;25.60;;;15.23;;
18425;SDS011;9340;48.756;9.226;2023-02-13T04:14:33;22.70;;;14.57;;
18425;SDS011;9340;48.756;9.226;2023-02-13T04:17:03;23.10;;;14.50;;
18425;SDS011;9340;48.756;9.226;2023-02-13T04:19:33;25.40;;;15.77;;
18425;SDS011;9340;48.756;9.226;2023-02-13T04:22:00;25.70;;;15.63;;
18425;SDS011;9340;48.756;9.226;2023-02-13T04:24:29;23.47;;;14.80;;
18425;SDS011;9340;48.756;9.226;2023-02-13T04:26:56;26.60;;;17.57;;
18425;SDS011;9340;48.756;9.226;2023-02-13T04:29:23;28.10;;;16.87;;
18425;SDS011;9340;48.756;9.226;2023-02-13T04:31:51;24.87;;;15.63;;
18425;SDS011;9340;48.756;9.226;2023-02-13T04:34:18;22.27;;;14.80;;
18425;SDS011;9340;48.756;9.226;2023-02-13T04:36:44;26.93;;;16.10;;
18425;SDS011;9340;48.756;9.226;2023-02-13T04:39:11;25.50;;;15.30;;
18425;SDS011;9340;48.756;9.226;2023-02-13T04:41:39;27.13;;;16.40;;
18425;SDS011;9340;48.756;9.226;2023-02-13T04:44:06;24.67;;;15.33;;
18425;SDS011;9340;48.756;9.226;2023-02-13T04:46:33;24.20;;;15.27;;
18425;SDS011;9340;48.756;9.226;2023-02-13T04:49:00;23.97;;;16.30;;
18425;SDS011;9340;48.756;9.226;2023-02-13T04:51:26;25.43;;;16.07;;
18425;SDS011;9340;48.756;9.226;2023-02-13T04:53:53;26.23;;;15.90;;
18425;SDS011;9340;48.756;9.226;2023-02-13T04:56:20;25.60;;;15.53;;
18425;SDS011;9340;48.756;9.226;2023-02-13T04:58:48;21.73;;;14.43;;
18425;SDS011;9340;48.756;9.226;2023-02-13T05:01:15;25.70;;;16.90;;
18425;SDS011;9340;48.756;9.226;2023-02-13T05:03:43;26.87;;;15.67;;
18425;SDS011;9340;48.756;9.226;2023-02-13T05:06:09;24.43;;;15.57;;
18425;SDS011;9340;48.756;9.226;2023-02-13T05:08:36;26.77;;;17.20;;
18425;SDS011;9340;48.756;9.226;2023-02-13T05:11:03;25.03;;;15.40;;
18425;SDS011;9340;48.756;9.226;2023-02-13T05:13:30;27.27;;;16.00;;
18425;SDS011;9340;48.756;9.226;2023-02-13T05:15:58;24.50;;;16.13;;
18425;SDS011;9340;48.756;9.226;2023-02-13T05:18:25;25.10;;;15.83;;
18425;SDS011;9340;48.756;9.226;2023-02-13T05:20:51;24.77;;;15.93;;
18425;SDS011;9340;48.756;9.226;2023-02-13T05:23:32;22.77;;;16.17;;
18425;SDS011;9340;48.756;9.226;2023-02-13T05:25:59;24.87;;;16.37;;
18425;SDS011;9340;48.756;9.226;2023-02-13T05:28:25;25.23;;;17.30;;
18425;SDS011;9340;48.756;9.226;2023-02-13T05:31:11;26.77;;;18.73;;
18425;SDS011;9340;48.756;9.226;2023-02-13T05:33:38;32.03;;;21.90;;
18425;SDS011;9340;48.756;9.226;2023-02-13T05:36:05;28.33;;;18.53;;
18425;SDS011;9340;48.756;9.226;2023-02-13T05:38:32;28.37;;;16.63;;
18425;SDS011;9340;48.756;9.226;2023-02-13T05:41:00;25.93;;;16.73;;
18425;SDS011;9340;48.756;9.226;2023-02-13T05:43:27;26.50;;;16.60;;
18425;SDS011;9340;48.756;9.226;2023-02-13T05:46:00;27.60;;;16.20;;
18425;SDS011;9340;48.756;9.226;2023-02-13T05:48:29;27.43;;;17.33;;
18425;SDS011;9340;48.756;9.226;2023-02-13T05:50:55;27.37;;;17.27;;
18425;SDS011;9340;48.756;9.226;2023-02-13T05:53:22;26.73;;;16.93;;
18425;SDS011;9340;48.756;9.226;2023-02-13T05:55:49;26.13;;;16.70;;
18425;SDS011;9340;48.756;9.226;2023-02-13T05:58:16;24.13;;;16.27;;
18425;SDS011;9340;48.756;9.226;2023-02-13T06:00:43;26.53;;;16.90;;
18425;SDS011;9340;48.756;9.226;2023-02-13T06:03:10;26.23;;;17.77;;
18425;SDS011;9340;48.756;9.226;2023-02-13T06:05:38;26.70;;;17.37;;
18425;SDS011;9340;48.756;9.226;2023-02-13T06:08:05;25.37;;;16.77;;
18425;SDS011;9340;48.756;9.226;2023-02-13T06:10:32;25.70;;;16.93;;
18425;SDS011;9340;48.756;9.226;2023-02-13T06:12:58;28.67;;;18.10;;
18425;SDS011;9340;48.756;9.226;2023-02-13T06:15:25;28.63;;;17.43;;
18425;SDS011;9340;48.756;9.226;2023-02-13T06:17:52;29.33;;;17.60;;
18425;SDS011;9340;48.756;9.226;2023-02-13T06:20:19;30.80;;;18.00;;
18425;SDS011;9340;48.756;9.226;2023-02-13T06:22:48;28.93;;;16.83;;
18425;SDS011;9340;48.756;9.226;2023-02-13T06:25:15;26.40;;;17.03;;
18425;SDS011;9340;48.756;9.226;2023-02-13T06:27:41;30.83;;;18.57;;
18425;SDS011;9340;48.756;9.226;2023-02-13T06:30:09;26.60;;;16.33;;
18425;SDS011;9340;48.756;9.226;2023-02-13T06:32:36;29.03;;;17.33;;
18425;SDS011;9340;48.756;9.226;2023-02-13T06:35:03;27.43;;;17.70;;
18425;SDS011;9340;48.756;9.226;2023-02-13T06:37:31;28.17;;;17.83;;
18425;SDS011;9340;48.756;9.226;2023-02-13T06:39:59;24.13;;;16.93;;
18425;SDS011;9340;48.756;9.226;2023-02-13T06:42:26;29.57;;;18.07;;
18425;SDS011;9340;48.756;9.226;2023-02-13T06:44:53;30.03;;;17.67;;
18425;SDS011;9340;48.756;9.226;2023-02-13T06:47:20;29.47;;;18.30;;
18425;SDS011;9340;48.756;9.226;2023-02-13T06:49:47;32.00;;;18.80;;
18425;SDS011;9340;48.756;9.226;2023-02-13T06:52:13;27.97;;;18.50;;
18425;SDS011;9340;48.756;9.226;2023-02-13T06:54:40;32.30;;;18.93;;
18425;SDS011;9340;48.756;9.226;2023-02-13T06:57:08;29.63;;;18.10;;
18425;SDS011;9340;48.756;9.226;2023-02-13T06:59:35;30.97;;;19.23;;
18425;SDS011;9340;48.756;9.226;2023-02-13T07:02:02;29.27;;;18.10;;
18425;SDS011;9340;48.756;9.226;2023-02-13T07:04:29;30.37;;;19.77;;
18425;SDS011;9340;48.756;9.226;2023-02-13T07:06:55;28.93;;;19.40;;
18425;SDS011;9340;48.756;9.226;2023-02-13T07:09:23;24.47;;;16.30;;
18425;SDS011;9340;48.756;9.226;2023-02-13T07:11:50;27.37;;;18.70;;
18425;SDS011;9340;48.756;9.226;2023-02-13T07:14:18;34.27;;;20.17;;
18425;SDS011;9340;48.756;9.226;2023-02-13T07:16:45;32.57;;;19.03;;
18425;SDS011;9340;48.756;9.226;2023-02-13T07:19:11;30.00;;;19.60;;
18425;SDS011;9340;48.756;9.226;2023-02-13T07:21:39;30.63;;;19.50;;
18425;SDS011;9340;48.756;9.226;2023-02-13T07:24:09;29.47;;;18.37;;
18425;SDS011;9340;48.756;9.226;2023-02-13T07:26:39;36.83;;;23.50;;
18425;SDS011;9340;48.756;9.226;2023-02-13T07:29:09;30.50;;;21.57;;
18425;SDS011;9340;48.756;9.226;2023-02-13T07:31:40;35.13;;;23.73;;
18425;SDS011;9340;48.756;9.226;2023-02-13T07:40:49;22.70;;;17.13;;
18425;SDS011;9340;48.756;9.226;2023-02-13T07:47:18;34.50;;;23.00;;
18425;SDS011;9340;48.756;9.226;2023-02-13T07:49:45;28.47;;;20.43;;
18425;SDS011;9340;48.756;9.226;2023-02-13T07:52:11;27.77;;;18.33;;
18425;SDS011;9340;48.756;9.226;2023-02-13T07:54:38;26.13;;;16.93;;
18425;SDS011;9340;48.756;9.226;2023-02-13T07:57:11;27.97;;;17.73;;
18425;SDS011;9340;48.756;9.226;2023-02-13T07:59:38;26.10;;;18.37;;
18425;SDS011;9340;48.756;9.226;2023-02-13T08:02:05;25.13;;;17.80;;
18425;SDS011;9340;48.756;9.226;2023-02-13T08:04:37;23.53;;;15.70;;
18425;SDS011;9340;48.756;9.226;2023-02-13T08:07:05;26.57;;;17.50;;
18425;SDS011;9340;48.756;9.226;2023-02-13T08:09:32;25.93;;;18.17;;
18425;SDS011;9340;48.756;9.226;2023-02-13T08:12:16;25.33;;;16.70;;
18425;SDS011;9340;48.756;9.226;2023-02-13T08:14:43;27.33;;;18.80;;
18425;SDS011;9340;48.756;9.226;2023-02-13T08:17:10;28.27;;;19.03;;
18425;SDS011;9340;48.756;9.226;2023-02-13T08:19:39;23.40;;;17.23;;
18425;SDS011;9340;48.756;9.226;2023-02-13T08:22:06;28.00;;;20.23;;
18425;SDS011;9340;48.756;9.226;2023-02-13T08:24:35;28.37;;;18.57;;
18425;SDS011;9340;48.756;9.226;2023-02-13T08:27:01;23.53;;;17.83;;
18425;SDS011;9340;48.756;9.226;2023-02-13T08:29:31;29.67;;;21.43;;
18425;SDS011;9340;48.756;9.226;2023-02-13T08:31:58;30.07;;;20.37;;
18425;SDS011;9340;48.756;9.226;2023-02-13T08:34:25;28.70;;;20.93;;
18425;SDS011;9340;48.756;9.226;2023-02-13T08:36:54;30.07;;;20.83;;
18425;SDS011;9340;48.756;9.226;2023-02-13T08:39:21;28.43;;;19.77;;
18425;SDS011;9340;48.756;9.226;2023-02-13T08:41:47;29.50;;;21.57;;
18425;SDS011;9340;48.756;9.226;2023-02-13T08:44:14;25.50;;;18.23;;
18425;SDS011;9340;48.756;9.226;2023-02-13T08:46:41;27.27;;;20.30;;
18425;SDS011;9340;48.756;9.226;2023-02-13T08:49:08;22.43;;;17.63;;
18425;SDS011;9340;48.756;9.226;2023-02-13T08:51:34;20.80;;;16.30;;
18425;SDS011;9340;48.756;9.226;2023-02-13T08:54:03;23.17;;;16.97;;
18425;SDS011;9340;48.756;9.226;2023-02-13T08:56:30;21.57;;;15.67;;
18425;SDS011;9340;48.756;9.226;2023-02-13T08:58:57;25.50;;;18.17;;
18425;SDS011;9340;48.756;9.226;2023-02-13T09:01:24;55.77;;;37.70;;
18425;SDS011;9340;48.756;9.226;2023-02-13T09:03:51;22.70;;;16.43;;
18425;SDS011;9340;48.756;9.226;2023-02-13T09:06:17;24.60;;;18.53;;
18425;SDS011;9340;48.756;9.226;2023-02-13T09:08:44;25.63;;;20.23;;
18425;SDS011;9340;48.756;9.226;2023-02-13T09:11:12;19.57;;;15.57;;
18425;SDS011;9340;48.756;9.226;2023-02-13T09:13:39;17.90;;;15.03;;
18425;SDS011;9340;48.756;9.226;2023-02-13T09:16:06;18.47;;;15.00;;
18425;SDS011;9340;48.756;9.226;2023-02-13T09:18:34;17.67;;;13.57;;
18425;SDS011;9340;48.756;9.226;2023-02-13T09:21:02;19.37;;;15.13;;
18425;SDS011;9340;48.756;9.226;2023-02-13T09:23:31;22.67;;;18.07;;
18425;SDS011;9340;48.756;9.226;2023-02-13T09:25:59;24.63;;;20.23;;
18425;SDS011;9340;48.756;9.226;2023-02-13T09:28:28;19.40;;;14.07;;
18425;SDS011;9340;48.756;9.226;2023-02-13T09:30:55;16.53;;;12.53;;
18425;SDS011;9340;48.756;9.226;2023-02-13T09:33:22;16.87;;;13.73;;
18425;SDS011;9340;48.756;9.226;2023-02-13T09:35:50;44.57;;;37.77;;
18425;SDS011;9340;48.756;9.226;2023-02-13T09:38:17;18.00;;;14.07;;
18425;SDS011;9340;48.756;9.226;2023-02-13T09:40:44;17.00;;;12.93;;
18425;SDS011;9340;48.756;9.226;2023-02-13T09:43:16;19.03;;;14.37;;
18425;SDS011;9340;48.756;9.226;2023-02-13T09:45:49;17.17;;;12.63;;
18425;SDS011;9340;48.756;9.226;2023-02-13T09:48:21;15.00;;;12.17;;
18425;SDS011;9340;48.756;9.226;2023-02-13T09:50:53;14.03;;;11.67;;
18425;SDS011;9340;48.756;9.226;2023-02-13T09:53:21;13.17;;;11.80;;
18425;SDS011;9340;48.756;9.226;2023-02-13T09:55:55;14.37;;;12.07;;
18425;SDS011;9340;48.756;9.226;2023-02-13T09:58:38;12.97;;;11.00;;
18425;SDS011;9340;48.756;9.226;2023-02-13T10:01:16;13.97;;;11.93;;
18425;SDS011;9340;48.756;9.226;2023-02-13T10:03:50;13.87;;;11.23;;
18425;SDS011;9340;48.756;9.226;2023-02-13T10:06:38;11.53;;;10.33;;
18425;SDS011;9340;48.756;9.226;2023-02-13T10:09:16;13.00;;;11.50;;
18425;SDS011;9340;48.756;9.226;2023-02-13T10:12:12;13.10;;;11.70;;
18425;SDS011;9340;48.756;9.226;2023-02-13T10:14:58;11.50;;;9.70;;
18425;SDS011;9340;48.756;9.226;2023-02-13T10:17:37;11.97;;;10.73;;
18425;SDS011;9340;48.756;9.226;2023-02-13T10:20:07;19.47;;;16.33;;
18425;SDS011;9340;48.756;9.226;2023-02-13T10:22:48;12.53;;;10.53;;
18425;SDS011;9340;48.756;9.226;2023-02-13T10:25:20;11.90;;;10.67;;
18425;SDS011;9340;48.756;9.226;2023-02-13T10:27:51;13.20;;;11.80;;
18425;SDS011;9340;48.756;9.226;2023-02-13T10:30:22;12.70;;;10.07;;
18425;SDS011;9340;48.756;9.226;2023-02-13T10:32:56;12.43;;;11.23;;
18425;SDS011;9340;48.756;9.226;2023-02-13T10:35:46;11.43;;;9.93;;
18425;SDS011;9340;48.756;9.226;2023-02-13T10:38:17;10.40;;;9.40;;
18425;SDS011;9340;48.756;9.226;2023-02-13T10:40:52;12.13;;;10.10;;
18425;SDS011;9340;48.756;9.226;2023-02-13T10:43:33;12.07;;;10.83;;
18425;SDS011;9340;48.756;9.226;2023-02-13T10:46:08;10.87;;;9.73;;
18425;SDS011;9340;48.756;9.226;2023-02-13T10:48:57;10.60;;;9.50;;
18425;SDS011;9340;48.756;9.226;2023-02-13T10:51:32;11.50;;;10.23;;
18425;SDS011;9340;48.756;9.226;2023-02-13T10:54:13;13.23;;;10.57;;
18425;SDS011;9340;48.756;9.226;2023-02-13T10:56:47;9.93;;;9.03;;
18425;SDS011;9340;48.756;9.226;2023-02-13T10:59:29;10.17;;;8.97;;
18425;SDS011;9340;48.756;9.226;2023-02-13T11:02:19;10.77;;;9.60;;
18425;SDS011;9340;48.756;9.226;2023-02-13T11:04:51;9.50;;;8.50;;
18425;SDS011;9340;48.756;9.226;2023-02-13T11:07:23;10.10;;;9.03;;
18425;SDS011;9340;48.756;9.226;2023-02-13T11:09:53;8.27;;;7.47;;
18425;SDS011;9340;48.756;9.226;2023-02-13T11:12:24;9.70;;;8.33;;
18425;SDS011;9340;48.756;9.226;2023-02-13T11:14:54;10.30;;;9.30;;
18425;SDS011;9340;48.756;9.226;2023-02-13T11:17:22;9.07;;;8.17;;
18425;SDS011;9340;48.756;9.226;2023-02-13T11:19:59;8.20;;;7.40;;
18425;SDS011;9340;48.756;9.226;2023-02-13T11:22:31;9.43;;;8.53;;
18425;SDS011;9340;48.756;9.226;2023-02-13T11:25:01;9.23;;;8.07;;
18425;SDS011;9340;48.756;9.226;2023-02-13T11:27:32;8.37;;;7.57;;
18425;SDS011;9340;48.756;9.226;2023-02-13T11:30:04;9.53;;;7.63;;
18425;SDS011;9340;48.756;9.226;2023-02-13T11:32:33;8.90;;;8.00;;
18425;SDS011;9340;48.756;9.226;2023-02-13T11:40:48;9.97;;;8.53;;
18425;SDS011;9340;48.756;9.226;2023-02-13T11:43:21;9.23;;;8.33;;
18425;SDS011;9340;48.756;9.226;2023-02-13T11:45:59;9.00;;;8.10;;
18425;SDS011;9340;48.756;9.226;2023-02-13T11:48:28;8.40;;;7.60;;
18425;SDS011;9340;48.756;9.226;2023-02-13T11:50:56;9.50;;;8.60;;
18425;SDS011;9340;48.756;9.226;2023-02-13T11:53:26;8.70;;;7.87;;
18425;SDS011;9340;48.756;9.226;2023-02-13T11:56:02;10.80;;;8.57;;
18425;SDS011;9340;48.756;9.226;2023-02-13T11:58:32;10.00;;;8.00;;
18425;SDS011;9340;48.756;9.226;2023-02-13T12:01:07;8.27;;;7.47;;
18425;SDS011;9340;48.756;9.226;2023-02-13T12:03:36;9.47;;;8.47;;
18425;SDS011;9340;48.756;9.226;2023-02-13T12:06:10;11.67;;;10.43;;
18425;SDS011;9340;48.756;9.226;2023-02-13T12:08:40;11.53;;;10.00;;
18425;SDS011;9340;48.756;9.226;2023-02-13T12:11:13;11.23;;;9.50;;
18425;SDS011;9340;48.756;9.226;2023-02-13T12:13:48;10.73;;;9.63;;
18425;SDS011;9340;48.756;9.226;2023-02-13T12:16:22;13.87;;;9.30;;
18425;SDS011;9340;48.756;9.226;2023-02-13T12:18:55;12.30;;;10.37;;
18425;SDS011;9340;48.756;9.226;2023-02-13T12:21:33;11.50;;;9.67;;
18425;SDS011;9340;48.756;9.226;2023-02-13T12:24:15;11.73;;;9.53;;
18425;SDS011;9340;48.756;9.226;2023-02-13T12:26:57;10.80;;;8.90;;
18425;SDS011;9340;48.756;9.226;2023-02-13T12:29:35;10.97;;;8.83;;
18425;SDS011;9340;48.756;9.226;2023-02-13T12:32:40;9.83;;;8.77;;
18425;SDS011;9340;48.756;9.226;2023-02-13T12:35:25;10.37;;;8.87;;
18425;SDS011;9340;48.756;9.226;2023-02-13T12:38:10;9.70;;;8.43;;
18425;SDS011;9340;48.756;9.226;2023-02-13T12:46:59;10.07;;;9.07;;
18425;SDS011;9340;48.756;9.226;2023-02-13T12:49:42;9.90;;;8.57;;
18425;SDS011;9340;48.756;9.226;2023-02-13T12:52:33;10.53;;;8.53;;
18425;SDS011;9340;48.756;9.226;2023-02-13T12:55:18;11.03;;;9.87;;
18425;SDS011;9340;48.756;9.226;2023-02-13T12:58:01;11.23;;;10.03;;
18425;SDS011;9340;48.756;9.226;2023-02-13T13:00:56;10.40;;;9.30;;
18425;SDS011;9340;48.756;9.226;2023-02-13T13:03:34;10.80;;;9.70;;
18425;SDS011;9340;48.756;9.226;2023-02-13T13:06:20;11.10;;;10.00;;
18425;SDS011;9340;48.756;9.226;2023-02-13T13:09:33;12.40;;;11.10;;
18425;SDS011;9340;48.756;9.226;2023-02-13T13:12:14;10.93;;;9.67;;
18425;SDS011;9340;48.756;9.226;2023-02-13T13:14:52;11.27;;;9.00;;
18425;SDS011;9340;48.756;9.226;2023-02-13T13:17:28;10.83;;;9.63;;
18425;SDS011;9340;48.756;9.226;2023-02-13T13:20:11;10.60;;;9.50;;
18425;SDS011;9340;48.756;9.226;2023-02-13T13:23:02;10.10;;;8.90;;
18425;SDS011;9340;48.756;9.226;2023-02-13T13:25:35;9.67;;;8.63;;
18425;SDS011;9340;48.756;9.226;2023-02-13T13:28:13;11.60;;;9.93;;
18425;SDS011;9340;48.756;9.226;2023-02-13T13:30:44;11.03;;;9.40;;
18425;SDS011;9340;48.756;9.226;2023-02-13T13:33:13;10.10;;;9.10;;
18425;SDS011;9340;48.756;9.226;2023-02-13T13:35:42;11.17;;;9.93;;
18425;SDS011;9340;48.756;9.226;2023-02-13T13:38:13;10.33;;;9.30;;
18425;SDS011;9340;48.756;9.226;2023-02-13T13:40:48;10.43;;;9.33;;
18425;SDS011;9340;48.756;9.226;2023-02-13T13:43:24;10.40;;;9.33;;
18425;SDS011;9340;48.756;9.226;2023-02-13T13:45:59;10.60;;;9.57;;
18425;SDS011;9340;48.756;9.226;2023-02-13T13:48:41;10.57;;;9.27;;
18425;SDS011;9340;48.756;9.226;2023-02-13T13:51:20;10.00;;;8.87;;
18425;SDS011;9340;48.756;9.226;2023-02-13T13:59:59;10.17;;;9.07;;
18425;SDS011;9340;48.756;9.226;2023-02-13T14:02:51;10.37;;;8.70;;
18425;SDS011;9340;48.756;9.226;2023-02-13T14:05:59;10.10;;;8.23;;
18425;SDS011;9340;48.756;9.226;2023-02-13T14:11:26;10.07;;;8.90;;
18425;SDS011;9340;48.756;9.226;2023-02-13T14:13:56;10.20;;;9.00;;
18425;SDS011;9340;48.756;9.226;2023-02-13T14:16:38;10.30;;;8.73;;
18425;SDS011;9340;48.756;9.226;2023-02-13T14:19:21;9.43;;;8.43;;
18425;SDS011;9340;48.756;9.226;2023-02-13T14:21:50;10.93;;;8.97;;
18425;SDS011;9340;48.756;9.226;2023-02-13T14:24:18;12.20;;;9.10;;
18425;SDS011;9340;48.756;9.226;2023-02-13T14:26:51;10.13;;;9.13;;
18425;SDS011;9340;48.756;9.226;2023-02-13T14:29:27;9.77;;;8.73;;
18425;SDS011;9340;48.756;9.226;2023-02-13T14:32:06;11.33;;;9.97;;
18425;SDS011;9340;48.756;9.226;2023-02-13T14:34:41;9.27;;;8.00;;
18425;SDS011;9340;48.756;9.226;2023-02-13T14:37:16;9.60;;;8.60;;
18425;SDS011;9340;48.756;9.226;2023-02-13T14:42:53;10.10;;;8.90;;
18425;SDS011;9340;48.756;9.226;2023-02-13T14:45:23;10.50;;;9.37;;
18425;SDS011;9340;48.756;9.226;2023-02-13T14:47:55;10.77;;;9.23;;
18425;SDS011;9340;48.756;9.226;2023-02-13T14:50:24;9.10;;;8.20;;
18425;SDS011;9340;48.756;9.226;2023-02-13T14:52:54;9.40;;;7.90;;
18425;SDS011;9340;48.756;9.226;2023-02-13T14:55:27;9.27;;;8.30;;
18425;SDS011;9340;48.756;9.226;2023-02-13T14:58:01;10.37;;;9.00;;
18425;SDS011;9340;48.756;9.226;2023-02-13T15:00:33;9.63;;;8.63;;
18425;SDS011;9340;48.756;9.226;2023-02-13T15:03:19;9.80;;;8.00;;
18425;SDS011;9340;48.756;9.226;2023-02-13T15:05:52;10.33;;;8.30;;
18425;SDS011;9340;48.756;9.226;2023-02-13T15:08:23;10.07;;;8.83;;
18425;SDS011;9340;48.756;9.226;2023-02-13T15:10:53;8.53;;;7.63;;
18425;SDS011;9340;48.756;9.226;2023-02-13T15:13:22;8.73;;;7.93;;
18425;SDS011;9340;48.756;9.226;2023-02-13T15:15:51;8.30;;;7.23;;
18425;SDS011;9340;48.756;9.226;2023-02-13T15:18:27;9.53;;;8.53;;
18425;SDS011;9340;48.756;9.226;2023-02-13T15:20:57;9.23;;;7.77;;
18425;SDS011;9340;48.756;9.226;2023-02-13T15:23:26;7.90;;;7.20;;
18425;SDS011;9340;48.756;9.226;2023-02-13T15:25:55;9.93;;;8.53;;
18425;SDS011;9340;48.756;9.226;2023-02-13T15:28:24;10.30;;;8.63;;
18425;SDS011;9340;48.756;9.226;2023-02-13T15:30:52;10.33;;;8.80;;
18425;SDS011;9340;48.756;9.226;2023-02-13T15:33:22;9.10;;;7.73;;
18425;SDS011;9340;48.756;9.226;2023-02-13T15:35:56;9.77;;;8.30;;
18425;SDS011;9340;48.756;9.226;2023-02-13T15:38:25;10.43;;;8.23;;
18425;SDS011;9340;48.756;9.226;2023-02-13T15:40:54;9.10;;;8.20;;
18425;SDS011;9340;48.756;9.226;2023-02-13T15:43:29;9.93;;;8.93;;
18425;SDS011;9340;48.756;9.226;2023-02-13T15:46:00;10.63;;;9.43;;